KDAY/DAY METAR and TAF weather

Enter ICAO airport designator
Station Type Date Time Source
KDAY METAR 2021/09/28 15:56 UTC NOAA

KDAY 281556Z 31007KT 10SM FEW040 24/16 A2999 RMK AO2 SLP146 T02440156


Station Type Date Time Source
KDAY Decoded METAR 2021/09/28 15:56 UTC NOAA

COX DAYTON INTERNATIONAL, OH, United States (KDAY) 39-54N 084-13W 305M
Sep 28, 2021 - 11:56 AM EDT / 2021.09.28 1556 UTC
Wind: from the NW (310 degrees) at 8 MPH (7 KT):0
Visibility: 10 mile(s):0
Sky conditions: mostly clear
Temperature: 75.9 F (24.4 C)
Dew Point: 60.1 F (15.6 C)
Relative Humidity: 57%
Pressure (altimeter): 29.99 in. Hg (1015 hPa)
ob: KDAY 281556Z 31007KT 10SM FEW040 24/16 A2999 RMK AO2 SLP146 T02440156
cycle: 16

Station Type Date Time Source
KDAY TAF 2021/09/28 12:40 UTC NOAA

TAF KDAY 281138Z 2812/2912 23009KT P6SM SCT120
FM281300 27005KT P6SM FEW250
FM281600 31006KT P6SM BKN025
FM281900 35005KT P6SM SCT035
FM282200 02005KT P6SM SCT250

Example: see airport list